Time,TemperatureF,DewpointF,PressureIn,WindDirection,WindDirectionDegrees,WindSpeedMPH,WindSpeedGustMPH,Humidity,HourlyPrecipIn,Conditions,Clouds,dailyrainin,SoftwareType,DateUTC
2014-08-27 00:11:00,73.7,72.0,30.02,SW,218,0.0,0.0,93,0.00,,,0.00,weatherlink.com 1.10,2014-08-27 04:11:00,
2014-08-27 00:26:00,73.5,71.0,30.02,SW,218,0.0,0.0,93,0.00,,,0.00,weatherlink.com 1.10,2014-08-27 04:26:00,
2014-08-27 00:42:00,73.5,71.0,30.02,SW,218,0.0,0.0,93,0.00,,,0.00,weatherlink.com 1.10,2014-08-27 04:42:00,
2014-08-27 00:57:00,73.3,72.0,30.02,SW,218,0.0,1.0,94,0.00,,,0.00,weatherlink.com 1.10,2014-08-27 04:57:00,
2014-08-27 01:12:00,73.0,71.0,30.02,SW,218,0.0,0.0,94,0.00,,,0.00,weatherlink.com 1.10,2014-08-27 05:12:00,
2014-08-27 01:27:00,72.7,71.0,30.02,SW,218,0.0,1.0,95,0.00,,,0.00,weatherlink.com 1.10,2014-08-27 05:27:00,
2014-08-27 01:42:00,72.4,71.0,30.02,SW,218,0.0,0.0,95,0.00,,,0.00,weatherlink.com 1.10,2014-08-27 05:42:00,
2014-08-27 01:57:00,72.1,71.0,30.02,SW,218,0.0,0.0,95,0.00,,,0.00,weatherlink.com 1.10,2014-08-27 05:57:00,
2014-08-27 02:12:00,71.8,70.0,30.02,SW,218,0.0,0.0,95,0.00,,,0.00,weatherlink.com 1.10,2014-08-27 06:12:00,
2014-08-27 02:27:00,71.5,70.0,30.02,SW,218,0.0,0.0,96,0.00,,,0.00,weatherlink.com 1.10,2014-08-27 06:27:00,
2014-08-27 02:42:00,71.3,70.0,30.02,SW,218,0.0,0.0,96,0.00,,,0.00,weatherlink.com 1.10,2014-08-27 06:42:00,
2014-08-27 02:57:00,71.2,70.0,30.02,SW,218,0.0,0.0,96,0.00,,,0.00,weatherlink.com 1.10,2014-08-27 06:57:00,
2014-08-27 03:12:00,71.2,70.0,30.01,SW,218,0.0,0.0,96,0.00,,,0.00,weatherlink.com 1.10,2014-08-27 07:12:00,
2014-08-27 03:27:00,71.1,70.0,30.01,SW,219,0.0,0.0,96,0.00,,,0.00,weatherlink.com 1.10,2014-08-27 07:27:00,
2014-08-27 03:42:00,70.9,70.0,30.01,SW,218,0.0,0.0,96,0.00,,,0.00,weatherlink.com 1.10,2014-08-27 07:42:00,
2014-08-27 03:57:00,70.9,70.0,30.01,SW,218,0.0,0.0,96,0.00,,,0.00,weatherlink.com 1.10,2014-08-27 07:57:00,
2014-08-27 04:12:00,71.0,70.0,30.01,SW,218,0.0,0.0,96,0.00,,,0.00,weatherlink.com 1.10,2014-08-27 08:12:00,
2014-08-27 04:27:00,70.9,70.0,30.01,SW,218,0.0,0.0,96,0.00,,,0.00,weatherlink.com 1.10,2014-08-27 08:27:00,
2014-08-27 04:42:00,70.8,70.0,30.01,SW,218,0.0,0.0,96,0.00,,,0.00,weatherlink.com 1.10,2014-08-27 08:42:00,
2014-08-27 04:57:00,70.9,70.0,30.01,SW,218,0.0,0.0,96,0.00,,,0.00,weatherlink.com 1.10,2014-08-27 08:57:00,
2014-08-27 05:12:00,71.0,70.0,30.01,SW,218,0.0,0.0,96,0.00,,,0.00,weatherlink.com 1.10,2014-08-27 09:12:00,
2014-08-27 05:30:00,71.0,70.0,30.01,SW,218,0.0,0.0,95,0.00,,,0.00,weatherlink.com 1.10,2014-08-27 09:30:00,
2014-08-27 07:06:00,70.3,69.0,30.02,SE,132,0.0,0.0,96,0.00,,,0.00,weatherlink.com 1.10,2014-08-27 11:06:00,
2014-08-27 07:12:00,70.3,69.0,30.02,SE,133,0.0,0.0,97,0.00,,,0.00,weatherlink.com 1.10,2014-08-27 11:12:00,
2014-08-27 07:27:00,70.6,70.0,30.02,SE,133,0.0,0.0,97,0.00,,,0.00,weatherlink.com 1.10,2014-08-27 11:27:00,
2014-08-27 07:42:00,70.6,70.0,30.02,SE,132,0.0,0.0,97,0.00,,,0.00,weatherlink.com 1.10,2014-08-27 11:42:00,
2014-08-27 07:57:00,70.9,70.0,30.03,SE,132,0.0,0.0,97,0.00,,,0.00,weatherlink.com 1.10,2014-08-27 11:57:00,
2014-08-27 08:12:00,71.4,70.0,30.03,SE,141,0.0,1.0,96,0.00,,,0.00,weatherlink.com 1.10,2014-08-27 12:12:00,
2014-08-27 08:27:00,72.0,71.0,30.03,East,100,1.0,2.0,95,0.00,,,0.00,weatherlink.com 1.10,2014-08-27 12:27:00,
2014-08-27 08:42:00,72.6,71.0,30.03,ESE,116,0.0,1.0,93,0.00,,,0.00,weatherlink.com 1.10,2014-08-27 12:42:00,
2014-08-27 08:57:00,73.3,71.0,30.03,South,188,0.0,1.0,92,0.00,,,0.00,weatherlink.com 1.10,2014-08-27 12:57:00,
2014-08-27 09:13:00,74.5,71.0,30.02,SSE,159,0.0,1.0,88,0.00,,,0.00,weatherlink.com 1.10,2014-08-27 13:13:00,
2014-08-27 09:28:00,76.0,72.0,30.03,ENE,70,0.0,2.0,86,0.00,,,0.00,weatherlink.com 1.10,2014-08-27 13:28:00,
2014-08-27 09:43:00,76.8,72.0,30.03,SSE,159,0.0,2.0,85,0.00,,,0.00,weatherlink.com 1.10,2014-08-27 13:43:00,
2014-08-27 09:58:00,77.4,72.0,30.02,South,179,0.0,1.0,84,0.00,,,0.00,weatherlink.com 1.10,2014-08-27 13:58:00,
2014-08-27 10:13:00,79.0,73.0,30.02,SE,136,0.0,1.0,81,0.00,,,0.00,weatherlink.com 1.10,2014-08-27 14:13:00,
2014-08-27 10:28:00,80.4,73.0,30.02,South,172,0.0,2.0,79,0.00,,,0.00,weatherlink.com 1.10,2014-08-27 14:28:00,
2014-08-27 10:43:00,82.2,73.0,30.02,SE,129,0.0,3.0,73,0.00,,,0.00,weatherlink.com 1.10,2014-08-27 14:43:00,
2014-08-27 10:58:00,83.4,74.0,30.03,ESE,109,1.0,3.0,72,0.00,,,0.00,weatherlink.com 1.10,2014-08-27 14:58:00,
2014-08-27 11:13:00,84.8,74.0,30.03,SE,139,1.0,1.0,70,0.00,,,0.00,weatherlink.com 1.10,2014-08-27 15:13:00,
2014-08-27 11:28:00,85.4,73.0,30.03,East,84,0.0,2.0,67,0.00,,,0.00,weatherlink.com 1.10,2014-08-27 15:28:00,
2014-08-27 11:43:00,86.1,73.0,30.04,SE,140,0.0,4.0,65,0.00,,,0.00,weatherlink.com 1.10,2014-08-27 15:43:00,
2014-08-27 11:58:00,86.2,74.0,30.03,SSW,204,0.0,4.0,67,0.00,,,0.00,weatherlink.com 1.10,2014-08-27 15:58:00,
2014-08-27 12:13:00,87.3,75.0,30.02,East,87,1.0,3.0,66,0.00,,,0.00,weatherlink.com 1.10,2014-08-27 16:13:00,
2014-08-27 12:28:00,87.7,74.0,30.02,WSW,247,0.0,4.0,63,0.00,,,0.00,weatherlink.com 1.10,2014-08-27 16:28:00,
2014-08-27 12:43:00,87.7,74.0,30.01,ESE,114,0.0,5.0,64,0.00,,,0.00,weatherlink.com 1.10,2014-08-27 16:43:00,
2014-08-27 12:58:00,87.7,75.0,30.01,ENE,72,4.0,7.0,65,0.00,,,0.00,weatherlink.com 1.10,2014-08-27 16:58:00,
2014-08-27 13:13:00,89.2,75.0,30.00,ENE,67,1.0,3.0,63,0.00,,,0.00,weatherlink.com 1.10,2014-08-27 17:13:00,
2014-08-27 13:28:00,89.0,75.0,30.00,East,84,1.0,5.0,64,0.00,,,0.00,weatherlink.com 1.10,2014-08-27 17:28:00,
2014-08-27 13:43:00,89.3,75.0,30.00,ENE,65,1.0,5.0,63,0.00,,,0.00,weatherlink.com 1.10,2014-08-27 17:43:00,
2014-08-27 13:58:00,89.5,75.0,29.99,East,87,3.0,4.0,63,0.00,,,0.00,weatherlink.com 1.10,2014-08-27 17:58:00,
2014-08-27 14:13:00,88.8,75.0,29.99,ESE,115,1.0,4.0,63,0.00,,,0.00,weatherlink.com 1.10,2014-08-27 18:13:00,
2014-08-27 14:28:00,89.5,75.0,29.99,SE,131,0.0,6.0,63,0.00,,,0.00,weatherlink.com 1.10,2014-08-27 18:28:00,
2014-08-27 14:43:00,90.4,75.0,29.98,SSE,153,2.0,6.0,60,0.00,,,0.00,weatherlink.com 1.10,2014-08-27 18:43:00,
2014-08-27 14:58:00,90.0,75.0,29.98,NE,53,4.0,6.0,61,0.00,,,0.00,weatherlink.com 1.10,2014-08-27 18:58:00,
2014-08-27 15:13:00,90.4,75.0,29.98,ESE,120,1.0,8.0,61,0.00,,,0.00,weatherlink.com 1.10,2014-08-27 19:13:00,
2014-08-27 15:29:00,91.1,75.0,29.97,SE,126,1.0,5.0,60,0.00,,,0.00,weatherlink.com 1.10,2014-08-27 19:29:00,
2014-08-27 15:44:00,91.6,75.0,29.97,ENE,75,2.0,6.0,59,0.00,,,0.00,weatherlink.com 1.10,2014-08-27 19:44:00,
2014-08-27 15:59:00,91.3,75.0,29.97,ENE,69,6.0,6.0,59,0.00,,,0.00,weatherlink.com 1.10,2014-08-27 19:59:00,
2014-08-27 16:14:00,90.2,75.0,29.96,SE,145,0.0,4.0,62,0.00,,,0.00,weatherlink.com 1.10,2014-08-27 20:14:00,
2014-08-27 16:29:00,89.9,74.0,29.96,East,94,4.0,5.0,60,0.00,,,0.00,weatherlink.com 1.10,2014-08-27 20:29:00,
2014-08-27 16:44:00,90.8,76.0,29.96,SE,128,1.0,5.0,62,0.00,,,0.00,weatherlink.com 1.10,2014-08-27 20:44:00,
2014-08-27 16:59:00,91.0,74.0,29.95,ENE,63,3.0,5.0,58,0.00,,,0.00,weatherlink.com 1.10,2014-08-27 20:59:00,
2014-08-27 17:14:00,91.2,73.0,29.95,East,82,4.0,6.0,56,0.00,,,0.00,weatherlink.com 1.10,2014-08-27 21:14:00,
2014-08-27 17:29:00,88.9,73.0,29.95,ENE,65,2.0,5.0,60,0.00,,,0.00,weatherlink.com 1.10,2014-08-27 21:29:00,
2014-08-27 17:44:00,87.3,75.0,29.94,ENE,68,3.0,5.0,67,0.00,,,0.00,weatherlink.com 1.10,2014-08-27 21:44:00,
2014-08-27 17:59:00,87.2,75.0,29.94,SE,143,2.0,4.0,67,0.00,,,0.00,weatherlink.com 1.10,2014-08-27 21:59:00,
2014-08-27 18:14:00,87.5,75.0,29.94,ENE,71,3.0,3.0,67,0.00,,,0.00,weatherlink.com 1.10,2014-08-27 22:14:00,
2014-08-27 18:29:00,86.4,75.0,29.95,East,91,2.0,4.0,68,0.00,,,0.00,weatherlink.com 1.10,2014-08-27 22:29:00,
2014-08-27 18:44:00,84.7,75.0,29.94,NE,46,2.0,6.0,72,0.00,,,0.00,weatherlink.com 1.10,2014-08-27 22:44:00,
2014-08-27 18:59:00,83.8,74.0,29.94,ESE,103,3.0,4.0,73,0.00,,,0.00,weatherlink.com 1.10,2014-08-27 22:59:00,
2014-08-27 19:14:00,83.2,74.0,29.94,SE,144,3.0,5.0,73,0.00,,,0.00,weatherlink.com 1.10,2014-08-27 23:14:00,
2014-08-27 19:29:00,82.7,74.0,29.95,ESE,120,2.0,5.0,74,0.00,,,0.00,weatherlink.com 1.10,2014-08-27 23:29:00,
2014-08-27 19:44:00,81.8,73.0,29.95,SE,129,2.0,4.0,75,0.00,,,0.00,weatherlink.com 1.10,2014-08-27 23:44:00,
2014-08-27 19:59:00,81.1,73.0,29.95,SE,124,1.0,2.0,76,0.00,,,0.00,weatherlink.com 1.10,2014-08-27 23:59:00,
2014-08-27 20:14:00,80.5,73.0,29.96,SE,134,1.0,2.0,77,0.00,,,0.00,weatherlink.com 1.10,2014-08-28 00:14:00,
2014-08-27 20:29:00,79.9,73.0,29.97,SE,133,1.0,2.0,78,0.00,,,0.00,weatherlink.com 1.10,2014-08-28 00:29:00,
2014-08-27 20:44:00,79.2,73.0,29.97,SE,137,0.0,2.0,80,0.00,,,0.00,weatherlink.com 1.10,2014-08-28 00:44:00,
2014-08-27 20:59:00,78.6,72.0,29.97,SE,134,0.0,2.0,81,0.00,,,0.00,weatherlink.com 1.10,2014-08-28 00:59:00,
2014-08-27 21:14:00,78.2,72.0,29.97,SSE,160,0.0,3.0,81,0.00,,,0.00,weatherlink.com 1.10,2014-08-28 01:14:00,
2014-08-27 21:29:00,77.9,72.0,29.97,ESE,115,1.0,3.0,81,0.00,,,0.00,weatherlink.com 1.10,2014-08-28 01:29:00,
2014-08-27 21:44:00,77.5,71.0,29.98,SE,131,2.0,2.0,81,0.00,,,0.00,weatherlink.com 1.10,2014-08-28 01:44:00,
2014-08-27 21:59:00,76.9,71.0,29.98,ESE,108,2.0,3.0,82,0.00,,,0.00,weatherlink.com 1.10,2014-08-28 01:59:00,
2014-08-27 22:14:00,76.7,71.0,29.98,ESE,110,1.0,4.0,81,0.00,,,0.00,weatherlink.com 1.10,2014-08-28 02:14:00,
2014-08-27 22:29:00,76.3,70.0,29.98,SE,139,1.0,3.0,80,0.00,,,0.00,weatherlink.com 1.10,2014-08-28 02:29:00,
2014-08-27 22:44:00,75.8,70.0,29.98,SSE,166,0.0,2.0,81,0.00,,,0.00,weatherlink.com 1.10,2014-08-28 02:44:00,
2014-08-27 22:59:00,75.1,69.0,29.99,South,183,0.0,1.0,81,0.00,,,0.00,weatherlink.com 1.10,2014-08-28 02:59:00,
2014-08-27 23:14:00,74.5,68.0,29.99,South,191,0.0,1.0,81,0.00,,,0.00,weatherlink.com 1.10,2014-08-28 03:14:00,
2014-08-27 23:29:00,73.8,68.0,29.99,SSW,192,0.0,0.0,82,0.00,,,0.00,weatherlink.com 1.10,2014-08-28 03:29:00,